createdAt,value
2023-03-01T00:01:19.938Z,7.70
2023-03-01T00:03:46.768Z,6.25
2023-03-01T00:06:13.880Z,6.30
2023-03-01T00:08:40.722Z,6.32
2023-03-01T00:11:14.841Z,5.80
2023-03-01T00:13:42.216Z,6.30
2023-03-01T00:16:12.009Z,6.32
2023-03-01T00:18:38.589Z,5.97
2023-03-01T00:21:06.301Z,6.75
2023-03-01T00:23:35.501Z,6.40
2023-03-01T00:26:02.296Z,6.68
2023-03-01T00:28:28.883Z,6.60
2023-03-01T00:30:55.499Z,7.47
2023-03-01T00:33:22.113Z,6.50
2023-03-01T00:35:48.832Z,6.45
2023-03-01T00:38:15.421Z,6.28
2023-03-01T00:40:41.954Z,7.15
2023-03-01T00:43:09.231Z,6.50
2023-03-01T00:45:35.701Z,5.95
2023-03-01T00:48:02.397Z,6.07
2023-03-01T00:50:29.114Z,6.40
2023-03-01T00:52:56.746Z,6.40
2023-03-01T00:55:24.661Z,6.20
2023-03-01T00:57:51.385Z,6.32
2023-03-01T01:00:19.194Z,6.90
2023-03-01T01:02:48.626Z,5.57
2023-03-01T01:05:15.693Z,6.57
2023-03-01T01:07:42.273Z,7.13
2023-03-01T01:10:09.638Z,8.48
2023-03-01T01:12:36.374Z,8.48
2023-03-01T01:15:03.123Z,6.60
2023-03-01T01:17:29.800Z,6.70
2023-03-01T01:19:56.444Z,6.85
2023-03-01T01:22:23.766Z,6.38
2023-03-01T01:24:50.354Z,6.35
2023-03-01T01:27:16.922Z,6.95
2023-03-01T01:29:43.554Z,6.60
2023-03-01T01:32:10.167Z,6.78
2023-03-01T01:34:36.874Z,6.35
2023-03-01T01:37:03.877Z,10.70
2023-03-01T01:39:30.641Z,7.60
2023-03-01T01:41:57.392Z,6.20
2023-03-01T01:44:27.425Z,5.95
2023-03-01T01:47:04.676Z,6.80
2023-03-01T01:49:45.674Z,6.60
2023-03-01T01:52:23.593Z,14.07
2023-03-01T01:54:56.289Z,7.50
2023-03-01T01:57:26.962Z,6.95
2023-03-01T01:59:59.065Z,6.55
2023-03-01T02:02:27.222Z,5.68
2023-03-01T02:05:04.584Z,6.38
2023-03-01T02:07:32.142Z,7.15
2023-03-01T02:09:59.374Z,8.00
2023-03-01T02:12:26.786Z,8.60
2023-03-01T02:14:53.391Z,8.52
2023-03-01T02:17:21.813Z,7.85
2023-03-01T02:20:09.889Z,7.53
2023-03-01T02:22:38.672Z,7.70
2023-03-01T02:25:20.161Z,6.32
2023-03-01T02:28:09.239Z,6.47
2023-03-01T02:30:35.960Z,7.32
2023-03-01T02:33:04.538Z,6.32
2023-03-01T02:35:34.977Z,6.93
2023-03-01T02:38:04.304Z,7.45
2023-03-01T02:40:32.370Z,8.13
2023-03-01T02:43:00.171Z,7.80
2023-03-01T02:45:28.030Z,8.43
2023-03-01T02:47:56.306Z,8.15
2023-03-01T02:50:29.279Z,7.72
2023-03-01T02:53:06.013Z,7.70
2023-03-01T02:55:32.906Z,7.85
2023-03-01T02:58:03.924Z,7.70
2023-03-01T03:00:40.930Z,6.95
2023-03-01T03:03:08.132Z,6.63
2023-03-01T03:05:34.773Z,7.22
2023-03-01T03:08:04.273Z,7.22
2023-03-01T03:10:38.004Z,8.18
2023-03-01T03:13:08.084Z,7.07
2023-03-01T03:15:39.426Z,8.00
2023-03-01T03:18:10.721Z,7.63
2023-03-01T03:20:38.746Z,7.60
2023-03-01T03:23:05.310Z,8.13
2023-03-01T03:25:31.812Z,7.03
2023-03-01T03:27:59.218Z,7.30
2023-03-01T03:30:29.790Z,7.28
2023-03-01T03:32:57.929Z,6.75
2023-03-01T03:35:29.715Z,6.78
2023-03-01T03:38:03.702Z,7.03
2023-03-01T03:40:38.915Z,7.90
2023-03-01T03:43:11.094Z,8.00
2023-03-01T03:45:37.746Z,7.50
2023-03-01T03:48:06.965Z,8.35
2023-03-01T03:50:34.396Z,8.15
2023-03-01T03:53:02.371Z,8.43
2023-03-01T03:55:31.455Z,7.43
2023-03-01T03:58:02.288Z,8.65
2023-03-01T04:00:29.388Z,7.65
2023-03-01T04:02:57.419Z,8.10
2023-03-01T04:05:24.592Z,7.85
2023-03-01T04:08:01.966Z,9.02
2023-03-01T04:10:33.715Z,8.02
2023-03-01T04:13:00.313Z,8.05
2023-03-01T04:15:28.022Z,8.90
2023-03-01T04:17:55.981Z,8.38
2023-03-01T04:20:30.876Z,8.48
2023-03-01T04:23:17.300Z,9.25
2023-03-01T04:25:54.440Z,9.18
2023-03-01T04:28:35.146Z,9.25
2023-03-01T04:31:14.321Z,8.32
2023-03-01T04:33:49.481Z,7.95
2023-03-01T04:36:17.550Z,8.90
2023-03-01T04:38:48.300Z,8.63
2023-03-01T04:41:17.672Z,8.27
2023-03-01T04:43:44.544Z,8.15
2023-03-01T04:46:16.713Z,9.25
2023-03-01T04:48:45.320Z,8.30
2023-03-01T04:51:14.334Z,8.80
2023-03-01T04:53:41.795Z,8.93
2023-03-01T04:56:08.942Z,7.97
2023-03-01T04:58:35.667Z,9.25
2023-03-01T05:01:02.278Z,9.30
2023-03-01T05:03:29.599Z,10.13
2023-03-01T05:06:00.528Z,9.38
2023-03-01T05:08:27.856Z,9.15
2023-03-01T05:10:55.342Z,10.23
2023-03-01T05:13:22.642Z,9.07
2023-03-01T05:15:55.998Z,9.18
2023-03-01T05:18:26.892Z,9.77
2023-03-01T05:20:57.100Z,8.52
2023-03-01T05:23:24.214Z,10.93
2023-03-01T05:25:53.240Z,10.05
2023-03-01T05:28:20.819Z,8.60
2023-03-01T05:30:48.297Z,8.32
2023-03-01T05:33:15.194Z,9.05
2023-03-01T05:35:43.919Z,10.00
2023-03-01T05:38:14.534Z,10.15
2023-03-01T05:40:45.907Z,9.73
2023-03-01T05:43:14.416Z,9.15
2023-03-01T05:45:41.893Z,8.43
2023-03-01T05:48:09.835Z,9.52
2023-03-01T05:50:40.073Z,9.38
2023-03-01T05:53:27.487Z,9.05
2023-03-01T05:55:54.191Z,8.80
2023-03-01T05:58:21.125Z,9.35
2023-03-01T06:00:49.030Z,10.40
2023-03-01T06:03:17.218Z,9.80
2023-03-01T06:05:44.604Z,9.55
2023-03-01T06:08:12.548Z,9.63
2023-03-01T06:10:39.928Z,9.77
2023-03-01T06:13:06.663Z,8.75
2023-03-01T06:15:33.423Z,8.75
2023-03-01T06:18:00.512Z,8.82
2023-03-01T06:20:29.348Z,8.38
2023-03-01T06:22:56.165Z,8.65
2023-03-01T06:25:25.073Z,8.90
2023-03-01T06:27:53.213Z,8.55
2023-03-01T06:30:21.620Z,8.80
2023-03-01T06:32:48.252Z,8.27
2023-03-01T06:35:19.934Z,9.02
2023-03-01T06:37:47.986Z,7.82
2023-03-01T06:40:15.941Z,7.75
2023-03-01T06:42:44.265Z,7.50
2023-03-01T06:45:11.409Z,7.97
2023-03-01T06:47:38.058Z,7.82
2023-03-01T06:50:05.180Z,8.13
2023-03-01T06:52:32.533Z,9.05
2023-03-01T06:54:59.109Z,7.53
2023-03-01T06:57:25.728Z,8.57
2023-03-01T06:59:52.310Z,7.15
2023-03-01T07:02:19.006Z,7.70
2023-03-01T07:04:45.523Z,8.30
2023-03-01T07:07:12.369Z,7.85
2023-03-01T07:09:38.960Z,7.90
2023-03-01T07:12:05.916Z,7.75
2023-03-01T07:14:32.915Z,7.97
2023-03-01T07:16:59.581Z,7.95
2023-03-01T07:19:26.317Z,7.78
2023-03-01T07:21:52.890Z,8.35
2023-03-01T07:24:19.518Z,7.78
2023-03-01T07:26:50.068Z,8.40
2023-03-01T07:29:16.843Z,7.60
2023-03-01T07:31:43.678Z,6.63
2023-03-01T07:34:11.622Z,6.28
2023-03-01T07:36:38.862Z,6.97
2023-03-01T07:39:05.381Z,6.88
2023-03-01T07:41:31.936Z,6.63
2023-03-01T07:43:58.501Z,6.75
2023-03-01T07:46:25.168Z,7.07
2023-03-01T07:48:51.654Z,7.30
2023-03-01T07:51:19.849Z,6.70
2023-03-01T07:53:49.057Z,6.40
2023-03-01T07:56:19.234Z,6.53
2023-03-01T07:58:46.323Z,7.20
2023-03-01T08:01:17.727Z,6.22
2023-03-01T08:03:44.952Z,7.10
2023-03-01T08:06:14.267Z,7.40
2023-03-01T08:08:41.127Z,7.28
2023-03-01T08:11:11.078Z,8.02
2023-03-01T08:13:43.900Z,6.75
2023-03-01T08:16:15.874Z,7.32
2023-03-01T08:18:43.781Z,6.78
2023-03-01T08:21:14.217Z,7.03
2023-03-01T08:23:42.335Z,7.25
2023-03-01T08:26:17.984Z,6.13
2023-03-01T08:28:45.070Z,6.15
2023-03-01T08:31:28.396Z,6.47
2023-03-01T08:34:01.784Z,6.53
2023-03-01T08:36:31.991Z,6.63
2023-03-01T08:38:59.023Z,7.07
2023-03-01T08:41:26.120Z,6.95
2023-03-01T08:43:53.753Z,8.10
2023-03-01T08:46:20.271Z,6.45
2023-03-01T08:48:46.766Z,6.82
2023-03-01T08:51:19.077Z,5.55
2023-03-01T08:53:46.143Z,6.10
2023-03-01T08:56:13.290Z,6.45
2023-03-01T08:58:40.898Z,6.03
2023-03-01T09:01:09.050Z,6.75
2023-03-01T09:03:35.632Z,7.05
2023-03-01T09:06:03.887Z,8.98
2023-03-01T09:08:30.730Z,10.73
2023-03-01T09:10:57.568Z,9.73
2023-03-01T09:13:28.189Z,9.52
2023-03-01T09:15:54.685Z,8.63
2023-03-01T09:18:21.148Z,7.57
2023-03-01T09:20:47.653Z,6.32
2023-03-01T09:23:14.262Z,6.28
2023-03-01T09:25:40.801Z,6.30
2023-03-01T09:28:07.542Z,6.40
2023-03-01T09:30:34.208Z,6.30
2023-03-01T09:33:00.728Z,6.60
2023-03-01T09:35:27.290Z,5.57
2023-03-01T09:37:53.843Z,5.35
2023-03-01T09:40:23.964Z,6.03
2023-03-01T09:43:06.770Z,6.00
2023-03-01T09:48:13.695Z,5.60
2023-03-01T09:50:44.520Z,5.78
2023-03-01T09:53:15.888Z,7.30
2023-03-01T09:55:51.753Z,6.10
2023-03-01T09:58:46.238Z,5.85
2023-03-01T10:01:33.689Z,5.80
2023-03-01T10:04:26.216Z,5.40
2023-03-01T10:07:17.885Z,5.88
2023-03-01T10:09:46.934Z,5.25
2023-03-01T10:12:20.987Z,4.75
2023-03-01T10:15:23.223Z,5.10
2023-03-01T10:17:57.134Z,4.80
2023-03-01T10:20:24.952Z,4.95
2023-03-01T10:22:53.551Z,4.43
2023-03-01T10:25:43.655Z,4.28
2023-03-01T10:28:30.550Z,4.78
2023-03-01T10:30:59.502Z,4.40
2023-03-01T10:33:29.922Z,5.10
2023-03-01T10:35:56.475Z,4.82
2023-03-01T10:38:23.715Z,4.70
2023-03-01T10:41:06.253Z,5.13
2023-03-01T10:44:01.101Z,4.55
2023-03-01T10:46:35.436Z,4.85
2023-03-01T10:49:21.346Z,5.25
2023-03-01T10:51:53.198Z,5.32
2023-03-01T10:54:32.470Z,5.05
2023-03-01T10:57:04.834Z,5.30
2023-03-01T10:59:39.945Z,5.00
2023-03-01T11:02:24.976Z,4.90
2023-03-01T11:05:14.081Z,5.18
2023-03-01T11:07:54.512Z,4.57
2023-03-01T11:10:33.076Z,5.30
2023-03-01T11:13:18.229Z,4.45
2023-03-01T11:16:00.276Z,4.72
2023-03-01T11:18:44.260Z,5.15
2023-03-01T11:21:12.796Z,5.00
2023-03-01T11:23:40.762Z,4.85
2023-03-01T11:26:12.294Z,5.38
2023-03-01T11:28:42.131Z,5.40
2023-03-01T11:31:15.882Z,4.90
2023-03-01T11:33:55.034Z,5.15
2023-03-01T11:36:36.654Z,4.93
2023-03-01T11:39:21.773Z,6.30
2023-03-01T11:41:53.469Z,4.85
2023-03-01T11:44:26.222Z,5.30
2023-03-01T11:47:09.612Z,5.18
2023-03-01T11:49:55.043Z,5.75
2023-03-01T11:52:50.606Z,5.18
2023-03-01T11:55:31.591Z,5.80
2023-03-01T11:58:03.847Z,5.82
2023-03-01T12:00:36.354Z,6.05
2023-03-01T12:03:14.854Z,5.63
2023-03-01T12:06:04.306Z,5.50
2023-03-01T12:08:43.712Z,5.18
2023-03-01T12:11:30.367Z,5.65
2023-03-01T12:14:11.859Z,5.13
2023-03-01T12:16:48.422Z,5.30
2023-03-01T12:19:39.885Z,5.65
2023-03-01T12:22:21.667Z,5.90
2023-03-01T12:25:13.267Z,5.53
2023-03-01T12:27:51.825Z,4.97
2023-03-01T12:30:41.744Z,5.03
2023-03-01T12:33:23.409Z,6.57
2023-03-01T12:36:20.766Z,8.48
2023-03-01T12:38:51.689Z,10.30
2023-03-01T12:41:39.179Z,5.82
2023-03-01T12:44:40.301Z,5.72
2023-03-01T12:47:37.580Z,5.43
2023-03-01T12:50:19.652Z,5.65
2023-03-01T12:52:53.475Z,5.47
2023-03-01T12:55:36.507Z,5.93
2023-03-01T12:58:49.855Z,5.38
2023-03-01T13:01:33.928Z,5.60
2023-03-01T13:04:19.288Z,6.22
2023-03-01T13:06:51.538Z,5.55
2023-03-01T13:09:35.964Z,5.28
2023-03-01T13:12:06.056Z,6.50
2023-03-01T13:14:37.180Z,5.95
2023-03-01T13:17:03.831Z,6.00
2023-03-01T13:19:32.257Z,6.10
2023-03-01T13:21:59.953Z,6.88
2023-03-01T13:24:39.533Z,6.40
2023-03-01T13:27:12.107Z,6.53
2023-03-01T13:32:31.637Z,6.35
2023-03-01T13:35:20.584Z,5.85
2023-03-01T13:37:47.908Z,6.32
2023-03-01T13:40:20.518Z,6.35
2023-03-01T13:45:42.061Z,5.90
2023-03-01T13:48:30.096Z,5.50
2023-03-01T13:51:15.339Z,5.97
2023-03-01T13:53:45.931Z,5.72
2023-03-01T13:56:20.406Z,6.65
2023-03-01T13:59:00.862Z,6.38
2023-03-01T14:01:36.829Z,6.60
2023-03-01T14:04:05.157Z,6.57
2023-03-01T14:06:36.596Z,5.63
2023-03-01T14:09:16.006Z,6.67
2023-03-01T14:12:07.404Z,7.13
2023-03-01T14:14:55.378Z,7.38
2023-03-01T14:18:03.527Z,7.03
2023-03-01T14:20:33.215Z,7.00
2023-03-01T14:23:03.461Z,6.72
2023-03-01T14:25:35.728Z,6.55
2023-03-01T14:28:18.944Z,6.47
2023-03-01T14:30:53.881Z,7.00
2023-03-01T14:33:34.381Z,6.95
2023-03-01T14:36:06.591Z,7.45
2023-03-01T14:38:41.589Z,6.38
2023-03-01T14:41:16.136Z,6.50
2023-03-01T14:43:47.826Z,6.13
2023-03-01T14:46:26.435Z,6.17
2023-03-01T14:48:57.126Z,6.30
2023-03-01T14:51:24.058Z,6.85
2023-03-01T14:53:51.990Z,6.13
2023-03-01T14:56:19.666Z,6.22
2023-03-01T14:58:49.596Z,6.43
2023-03-01T15:01:18.375Z,6.20
2023-03-01T15:03:50.777Z,5.88
2023-03-01T15:06:23.222Z,5.93
2023-03-01T15:08:53.010Z,6.07
2023-03-01T15:11:33.747Z,5.50
2023-03-01T15:14:00.749Z,5.72
2023-03-01T15:16:31.484Z,5.80
2023-03-01T15:19:02.656Z,7.22
2023-03-01T15:21:34.957Z,7.00
2023-03-01T15:24:20.789Z,5.93
2023-03-01T15:27:02.620Z,5.75
2023-03-01T15:29:34.177Z,5.78
2023-03-01T15:32:05.957Z,5.78
2023-03-01T15:34:33.451Z,6.35
2023-03-01T15:37:02.729Z,5.85
2023-03-01T15:39:40.551Z,5.38
2023-03-01T15:42:28.892Z,5.95
2023-03-01T15:45:21.852Z,5.70
2023-03-01T15:50:34.380Z,6.07
2023-03-01T15:53:05.154Z,5.70
2023-03-01T15:55:34.060Z,5.85
2023-03-01T15:58:11.340Z,5.95
2023-03-01T16:00:40.925Z,5.88
2023-03-01T16:03:13.699Z,4.90
2023-03-01T16:05:40.377Z,5.90
2023-03-01T16:08:07.708Z,5.80
2023-03-01T16:10:35.042Z,5.93
2023-03-01T16:13:01.618Z,5.47
2023-03-01T16:15:35.423Z,5.80
2023-03-01T16:18:02.064Z,5.50
2023-03-01T16:20:32.784Z,5.82
2023-03-01T16:23:01.968Z,5.33
2023-03-01T16:25:29.725Z,5.50
2023-03-01T16:27:56.961Z,5.22
2023-03-01T16:30:24.259Z,5.38
2023-03-01T16:32:51.569Z,5.25
2023-03-01T16:35:20.271Z,4.75
2023-03-01T16:37:47.142Z,5.47
2023-03-01T16:40:22.812Z,4.72
2023-03-01T16:42:51.098Z,4.47
2023-03-01T16:45:24.194Z,4.70
2023-03-01T16:47:53.770Z,5.20
2023-03-01T16:50:21.750Z,5.10
2023-03-01T16:52:48.256Z,5.22
2023-03-01T16:55:14.839Z,5.25
2023-03-01T16:57:41.686Z,4.63
2023-03-01T17:00:11.635Z,5.20
2023-03-01T17:02:38.616Z,4.20
2023-03-01T17:05:06.426Z,4.97
2023-03-01T17:07:36.850Z,4.65
2023-03-01T17:10:05.716Z,4.55
2023-03-01T17:12:33.029Z,4.57
2023-03-01T17:14:59.580Z,5.28
2023-03-01T17:17:26.436Z,5.43
2023-03-01T17:19:53.829Z,7.35
2023-03-01T17:22:20.384Z,4.68
2023-03-01T17:24:46.995Z,5.57
2023-03-01T17:27:14.209Z,5.75
2023-03-01T17:29:41.541Z,5.22
2023-03-01T17:32:09.348Z,4.93
2023-03-01T17:34:36.355Z,4.22
2023-03-01T17:37:03.004Z,4.70
2023-03-01T17:39:35.958Z,4.30
2023-03-01T17:42:05.137Z,4.13
2023-03-01T17:44:35.318Z,6.80
2023-03-01T17:47:03.667Z,5.93
2023-03-01T17:49:30.807Z,9.50
2023-03-01T17:51:57.783Z,6.15
2023-03-01T17:54:24.714Z,5.18
2023-03-01T17:56:51.693Z,5.40
2023-03-01T17:59:18.382Z,4.38
2023-03-01T18:01:45.049Z,4.93
2023-03-01T18:04:11.901Z,4.60
2023-03-01T18:06:40.615Z,4.40
2023-03-01T18:09:07.890Z,6.07
2023-03-01T18:11:35.861Z,4.72
2023-03-01T18:14:03.238Z,4.53
2023-03-01T18:16:31.843Z,4.35
2023-03-01T18:18:59.305Z,4.13
2023-03-01T18:21:26.085Z,4.80
2023-03-01T18:23:52.932Z,4.82
2023-03-01T18:26:22.089Z,5.35
2023-03-01T18:28:51.634Z,4.57
2023-03-01T18:31:22.078Z,4.38
2023-03-01T18:33:51.350Z,5.00
2023-03-01T18:36:27.276Z,4.32
2023-03-01T18:38:56.109Z,4.22
2023-03-01T18:41:24.863Z,4.13
2023-03-01T18:43:51.421Z,5.47
2023-03-01T18:46:20.161Z,5.00
2023-03-01T18:48:47.556Z,5.40
2023-03-01T18:51:17.491Z,6.00
2023-03-01T18:53:44.306Z,4.80
2023-03-01T18:56:11.917Z,4.85
2023-03-01T18:58:38.726Z,4.10
2023-03-01T19:01:11.349Z,4.28
2023-03-01T19:03:37.911Z,4.03
2023-03-01T19:06:05.161Z,6.18
2023-03-01T19:08:31.754Z,5.47
2023-03-01T19:10:59.690Z,4.72
2023-03-01T19:13:26.732Z,5.00
2023-03-01T19:16:01.777Z,4.20
2023-03-01T19:18:28.312Z,4.47
2023-03-01T19:21:04.277Z,3.90
2023-03-01T19:23:34.831Z,4.57
2023-03-01T19:26:07.581Z,4.88
2023-03-01T19:28:35.721Z,4.75
2023-03-01T19:31:06.604Z,3.92
2023-03-01T19:33:34.552Z,4.22
2023-03-01T19:36:02.516Z,4.10
2023-03-01T19:38:30.333Z,4.60
2023-03-01T19:40:57.680Z,4.90
2023-03-01T19:43:25.107Z,5.20
2023-03-01T19:45:55.624Z,4.30
2023-03-01T19:48:22.869Z,4.82
2023-03-01T19:50:52.459Z,4.30
2023-03-01T19:53:19.669Z,4.78
2023-03-01T19:55:46.277Z,5.07
2023-03-01T19:58:12.995Z,5.18
2023-03-01T20:00:43.977Z,4.47
2023-03-01T20:03:10.549Z,4.30
2023-03-01T20:05:38.664Z,4.78
2023-03-01T20:08:06.318Z,4.63
2023-03-01T20:10:33.893Z,3.75
2023-03-01T20:13:02.520Z,5.00
2023-03-01T20:15:29.497Z,4.63
2023-03-01T20:17:56.241Z,4.32
2023-03-01T20:20:22.880Z,4.38
2023-03-01T20:22:49.554Z,4.05
2023-03-01T20:25:16.415Z,3.97
2023-03-01T20:27:47.283Z,4.68
2023-03-01T20:30:15.695Z,4.65
2023-03-01T20:32:42.706Z,4.38
2023-03-01T20:35:10.039Z,4.97
2023-03-01T20:37:36.957Z,4.80
2023-03-01T20:40:04.723Z,5.35
2023-03-01T20:42:31.353Z,4.63
2023-03-01T20:44:57.943Z,4.22
2023-03-01T20:47:24.948Z,4.20
2023-03-01T20:49:52.006Z,4.70
2023-03-01T20:52:18.922Z,4.75
2023-03-01T20:54:45.494Z,5.25
2023-03-01T20:57:12.075Z,4.60
2023-03-01T20:59:38.650Z,6.07
2023-03-01T21:02:05.242Z,5.35
2023-03-01T21:04:31.894Z,5.55
2023-03-01T21:06:58.528Z,5.00
2023-03-01T21:09:25.130Z,8.32
2023-03-01T21:11:51.739Z,5.03
2023-03-01T21:14:18.533Z,5.70
2023-03-01T21:16:47.702Z,5.65
2023-03-01T21:19:14.395Z,6.03
2023-03-01T21:21:40.973Z,5.38
2023-03-01T21:24:10.409Z,5.55
2023-03-01T21:26:37.391Z,6.03
2023-03-01T21:29:04.250Z,5.82
2023-03-01T21:31:34.984Z,5.97
2023-03-01T21:34:04.890Z,5.22
2023-03-01T21:36:32.629Z,5.30
2023-03-01T21:39:01.695Z,6.18
2023-03-01T21:41:31.651Z,5.65
2023-03-01T21:44:00.751Z,5.22
2023-03-01T21:46:30.924Z,5.22
2023-03-01T21:48:58.926Z,5.07
2023-03-01T21:51:27.529Z,5.10
2023-03-01T21:53:56.062Z,5.03
2023-03-01T21:56:28.288Z,5.15
2023-03-01T21:58:56.932Z,5.25
2023-03-01T22:01:27.122Z,5.32
2023-03-01T22:03:54.678Z,5.20
2023-03-01T22:06:31.418Z,5.00
2023-03-01T22:09:00.963Z,5.15
2023-03-01T22:11:28.311Z,5.35
2023-03-01T22:13:56.515Z,5.45
2023-03-01T22:16:29.759Z,5.00
2023-03-01T22:18:57.423Z,5.35
2023-03-01T22:21:24.907Z,5.60
2023-03-01T22:23:53.709Z,5.05
2023-03-01T22:26:29.515Z,5.07
2023-03-01T22:28:58.618Z,5.35
2023-03-01T22:31:26.405Z,5.35
2023-03-01T22:33:53.716Z,4.75
2023-03-01T22:36:20.708Z,4.85
2023-03-01T22:38:47.459Z,5.03
2023-03-01T22:41:15.934Z,5.05
2023-03-01T22:43:42.460Z,4.88
2023-03-01T22:46:16.997Z,4.82
2023-03-01T22:48:44.567Z,5.85
2023-03-01T22:51:26.529Z,4.78
2023-03-01T22:53:53.291Z,5.73
2023-03-01T22:56:28.727Z,5.55
2023-03-01T22:58:57.049Z,5.57
2023-03-01T23:01:25.266Z,4.85
2023-03-01T23:03:52.082Z,5.35
2023-03-01T23:06:20.329Z,5.50
2023-03-01T23:08:55.070Z,5.72
2023-03-01T23:11:23.959Z,5.85
2023-03-01T23:13:51.013Z,5.00
2023-03-01T23:16:18.227Z,4.80
2023-03-01T23:18:45.720Z,5.13
2023-03-01T23:21:14.705Z,5.65
2023-03-01T23:23:41.797Z,5.72
2023-03-01T23:26:08.989Z,5.43
2023-03-01T23:28:40.288Z,5.82
2023-03-01T23:31:10.587Z,5.28
2023-03-01T23:33:40.656Z,5.60
2023-03-01T23:36:24.213Z,5.18
2023-03-01T23:38:52.956Z,5.35
2023-03-01T23:41:21.694Z,5.47
2023-03-01T23:43:50.599Z,5.15
2023-03-01T23:46:19.104Z,5.40
2023-03-01T23:48:46.359Z,5.38
2023-03-01T23:51:14.242Z,6.20
2023-03-01T23:53:43.949Z,5.78
2023-03-01T23:56:13.401Z,6.03
2023-03-01T23:58:39.945Z,5.80
